createdAt,value
2018-11-20T00:44:22.856Z,0.00
2018-11-20T00:46:22.841Z,0.00
2018-11-20T00:47:22.847Z,0.00
2018-11-20T00:48:22.832Z,0.00
2018-11-20T00:49:22.832Z,0.00
2018-11-20T00:50:23.356Z,0.00
2018-11-20T00:51:22.837Z,0.00
2018-11-20T00:52:22.840Z,0.00
2018-11-20T00:53:22.845Z,0.00
2018-11-20T00:54:22.843Z,0.00
2018-11-20T00:55:22.849Z,0.00
2018-11-20T00:56:22.848Z,0.00
2018-11-20T00:57:22.849Z,0.00
2018-11-20T00:58:22.851Z,0.00
2018-11-20T01:00:22.856Z,0.00
2018-11-20T01:01:22.878Z,0.00
2018-11-20T01:02:22.873Z,0.00
2018-11-20T01:03:22.861Z,0.00
2018-11-20T01:05:22.898Z,0.00
2018-11-20T01:06:22.855Z,0.00
2018-11-20T01:07:22.861Z,0.00
2018-11-20T01:08:22.866Z,0.00
2018-11-20T01:09:22.868Z,0.00
2018-11-20T01:10:22.872Z,0.00
2018-11-20T01:11:22.879Z,0.00
2018-11-20T01:12:22.884Z,0.00
2018-11-20T01:14:22.887Z,0.00
2018-11-20T01:15:22.893Z,0.00
2018-11-20T01:16:22.911Z,0.00
2018-11-20T01:17:22.890Z,0.00
2018-11-20T01:18:22.904Z,0.00
2018-11-20T01:19:22.899Z,0.00
2018-11-20T01:20:22.900Z,0.00
2018-11-20T01:21:22.906Z,0.00
2018-11-20T01:22:22.907Z,0.00
2018-11-20T01:23:22.904Z,0.00
2018-11-20T01:24:22.913Z,0.00
2018-11-20T01:25:22.919Z,0.00
2018-11-20T01:26:22.922Z,0.00
2018-11-20T01:27:22.925Z,0.00
2018-11-20T01:28:22.905Z,0.00
2018-11-20T01:29:22.914Z,0.00
2018-11-20T01:31:22.917Z,0.00
2018-11-20T01:32:22.930Z,0.00
2018-11-20T01:33:22.929Z,0.00
2018-11-20T01:34:22.929Z,0.00
2018-11-20T01:35:22.950Z,0.00
2018-11-20T01:36:22.937Z,0.00
2018-11-20T01:37:22.948Z,0.00
2018-11-20T01:38:22.955Z,0.00
2018-11-20T01:39:22.946Z,0.00
2018-11-20T01:40:22.939Z,0.00
2018-11-20T01:41:22.999Z,0.00
2018-11-20T01:42:22.948Z,0.00
2018-11-20T01:43:22.963Z,0.00
2018-11-20T01:44:22.958Z,0.00
2018-11-20T01:45:22.946Z,0.00
2018-11-20T01:47:22.960Z,0.00
2018-11-20T01:48:22.958Z,0.00
2018-11-20T01:49:22.954Z,0.00
2018-11-20T01:50:22.963Z,0.00
2018-11-20T01:51:23.046Z,0.00
2018-11-20T01:52:22.964Z,0.00
2018-11-20T01:53:22.971Z,0.00
2018-11-20T01:54:22.970Z,0.00
2018-11-20T01:55:22.980Z,0.00
2018-11-20T01:56:22.978Z,0.00
2018-11-20T01:57:22.978Z,0.00
2018-11-20T01:58:22.984Z,0.00
2018-11-20T01:59:22.982Z,0.00
2018-11-20T02:00:24.989Z,0.00
2018-11-20T02:01:22.988Z,0.00
2018-11-20T02:02:23.013Z,0.00
2018-11-20T02:03:23.038Z,0.00
2018-11-20T02:04:22.994Z,0.00
2018-11-20T02:05:22.996Z,0.00
2018-11-20T02:06:23.006Z,0.00
2018-11-20T02:07:23.002Z,0.00
2018-11-20T02:08:23.007Z,0.00
2018-11-20T02:09:23.000Z,0.00
2018-11-20T02:10:23.009Z,0.00
2018-11-20T02:11:23.021Z,0.00
2018-11-20T02:12:23.020Z,0.00
2018-11-20T02:13:23.025Z,0.00
2018-11-20T02:14:23.022Z,0.00
2018-11-20T02:16:23.028Z,0.00
2018-11-20T02:17:23.038Z,0.00
2018-11-20T02:18:23.031Z,0.00
2018-11-20T02:19:23.049Z,0.00
2018-11-20T02:20:23.033Z,0.00
2018-11-20T02:21:23.032Z,0.00
2018-11-20T02:22:23.039Z,0.00
2018-11-20T02:23:23.044Z,0.00
2018-11-20T02:24:23.038Z,0.00
2018-11-20T02:25:23.041Z,0.00
2018-11-20T02:26:23.044Z,0.00
2018-11-20T02:27:23.057Z,0.00
2018-11-20T02:28:23.074Z,0.00
2018-11-20T02:29:23.058Z,0.00
2018-11-20T02:30:23.058Z,0.00
2018-11-20T02:31:23.062Z,0.00
2018-11-20T02:32:23.063Z,0.00
2018-11-20T02:33:23.058Z,0.00
2018-11-20T02:34:23.086Z,0.00
2018-11-20T02:35:23.078Z,0.00
2018-11-20T02:36:23.069Z,0.00
2018-11-20T02:37:23.080Z,0.00
2018-11-20T02:38:23.076Z,0.00
2018-11-20T02:39:23.077Z,0.00
2018-11-20T02:40:23.101Z,0.00
2018-11-20T02:41:23.098Z,0.00
2018-11-20T02:42:23.084Z,0.00
2018-11-20T02:43:23.089Z,0.00
2018-11-20T02:44:23.086Z,0.00
2018-11-20T02:45:23.102Z,0.00
2018-11-20T02:46:23.101Z,0.00
2018-11-20T02:47:23.101Z,0.00
2018-11-20T02:48:23.109Z,0.00
2018-11-20T02:49:23.099Z,0.00
2018-11-20T02:50:23.135Z,0.00
2018-11-20T02:51:23.200Z,0.00
2018-11-20T02:52:23.111Z,0.00
2018-11-20T02:53:23.110Z,0.00
2018-11-20T02:54:23.115Z,0.00
2018-11-20T02:55:23.134Z,0.00
2018-11-20T02:56:23.135Z,0.00
2018-11-20T02:57:23.117Z,0.00
2018-11-20T02:58:23.119Z,0.00
2018-11-20T02:59:23.135Z,0.00
2018-11-20T03:00:23.135Z,0.00
2018-11-20T03:01:23.128Z,0.00
2018-11-20T03:02:23.138Z,0.00
2018-11-20T03:03:23.156Z,0.00
2018-11-20T03:04:23.140Z,0.00
2018-11-20T03:05:23.156Z,0.00
2018-11-20T03:06:23.149Z,0.00
2018-11-20T03:07:23.148Z,0.00
2018-11-20T03:09:23.157Z,0.00
2018-11-20T03:10:23.153Z,0.00
2018-11-20T03:11:23.156Z,0.00
2018-11-20T03:12:23.154Z,0.00
2018-11-20T03:14:23.160Z,0.00
2018-11-20T03:15:23.160Z,0.00
2018-11-20T03:16:23.159Z,0.00
2018-11-20T03:17:23.173Z,0.00
2018-11-20T03:18:23.174Z,0.00
2018-11-20T03:19:23.171Z,0.00
2018-11-20T03:20:23.173Z,0.00
2018-11-20T03:21:23.173Z,0.00
2018-11-20T03:22:23.184Z,0.00
2018-11-20T03:23:23.178Z,0.00
2018-11-20T03:24:23.188Z,0.00
2018-11-20T03:25:23.221Z,0.00
2018-11-20T03:27:23.207Z,0.00
2018-11-20T03:28:23.220Z,0.00
2018-11-20T03:29:23.208Z,0.00
2018-11-20T03:30:23.206Z,0.00
2018-11-20T03:31:23.217Z,0.00
2018-11-20T03:32:23.220Z,0.00
2018-11-20T03:33:23.208Z,0.00
2018-11-20T03:35:23.207Z,0.00
2018-11-20T03:36:23.230Z,0.00
2018-11-20T03:37:23.215Z,0.00
2018-11-20T03:38:23.228Z,0.00
2018-11-20T03:39:23.221Z,0.00
2018-11-20T03:40:23.230Z,0.00
2018-11-20T03:41:23.222Z,0.00
2018-11-20T03:42:23.225Z,0.00
2018-11-20T03:43:23.226Z,0.00
2018-11-20T03:44:23.234Z,0.00
2018-11-20T03:45:23.238Z,0.00
2018-11-20T03:46:23.238Z,0.00
2018-11-20T03:47:23.243Z,0.00
2018-11-20T03:48:23.245Z,0.00
2018-11-20T03:49:23.241Z,0.00
2018-11-20T03:50:23.256Z,0.00
2018-11-20T03:51:23.251Z,0.00
2018-11-20T03:53:51.073Z,0.00
2018-11-20T04:04:27.069Z,0.00
2018-11-20T04:05:27.070Z,0.00
2018-11-20T04:06:27.072Z,0.00
2018-11-20T04:07:27.066Z,0.00
2018-11-20T04:08:27.078Z,0.00
2018-11-20T04:09:27.092Z,0.00
2018-11-20T04:10:27.085Z,0.00
2018-11-20T04:11:27.087Z,0.00
2018-11-20T04:12:27.081Z,0.00
2018-11-20T04:13:27.085Z,0.00
2018-11-20T04:14:27.093Z,0.00
2018-11-20T04:15:27.097Z,0.00
2018-11-20T04:16:27.109Z,0.00
2018-11-20T04:17:27.089Z,0.00
2018-11-20T04:18:27.106Z,0.00
2018-11-20T04:20:27.105Z,0.00
2018-11-20T04:21:27.116Z,0.00
2018-11-20T04:22:27.112Z,0.00
2018-11-20T04:23:27.104Z,0.00
2018-11-20T04:24:27.103Z,0.00
2018-11-20T04:25:27.118Z,0.00
2018-11-20T04:26:27.112Z,0.00
2018-11-20T04:27:27.120Z,0.00
2018-11-20T04:28:27.123Z,0.00
2018-11-20T04:29:27.133Z,0.00
2018-11-20T04:30:27.126Z,0.00
2018-11-20T04:31:27.139Z,0.00
2018-11-20T04:32:27.137Z,0.00
2018-11-20T04:33:27.135Z,0.00
2018-11-20T04:35:27.141Z,0.00
2018-11-20T04:36:27.135Z,0.00
2018-11-20T04:37:27.139Z,0.00
2018-11-20T04:38:27.149Z,0.00
2018-11-20T04:39:27.149Z,0.00
2018-11-20T04:40:27.151Z,0.00
2018-11-20T04:41:27.153Z,0.00
2018-11-20T04:42:27.159Z,0.00
2018-11-20T04:43:27.153Z,0.00
2018-11-20T04:44:27.156Z,0.00
2018-11-20T04:45:27.164Z,0.00
2018-11-20T04:46:27.160Z,0.00
2018-11-20T04:47:27.169Z,0.00
2018-11-20T04:48:27.164Z,0.00
2018-11-20T04:49:27.173Z,0.00
2018-11-20T04:50:27.179Z,0.00
2018-11-20T04:51:27.182Z,0.00
2018-11-20T04:53:27.178Z,0.00
2018-11-20T04:54:27.178Z,0.00
2018-11-20T04:55:27.178Z,0.00
2018-11-20T04:56:27.193Z,0.00
2018-11-20T04:57:27.254Z,0.00
2018-11-20T04:58:27.193Z,0.00
2018-11-20T04:59:27.191Z,0.00
2018-11-20T05:00:27.201Z,0.00
2018-11-20T05:01:27.207Z,0.00
2018-11-20T05:02:27.212Z,0.00
2018-11-20T05:03:27.205Z,0.00
2018-11-20T05:04:27.213Z,0.00
2018-11-20T05:05:27.204Z,0.00
2018-11-20T05:06:27.272Z,0.00
2018-11-20T05:07:27.206Z,0.00
2018-11-20T05:08:27.218Z,0.00
2018-11-20T05:09:27.222Z,0.00
2018-11-20T05:10:27.231Z,0.00
2018-11-20T05:11:27.217Z,0.00
2018-11-20T05:12:27.228Z,0.00
2018-11-20T05:13:27.350Z,0.00
2018-11-20T05:14:27.232Z,0.00
2018-11-20T05:15:27.242Z,0.00
2018-11-20T05:16:27.245Z,0.00
2018-11-20T05:17:27.241Z,0.00
2018-11-20T05:18:27.233Z,0.00
2018-11-20T05:19:27.237Z,0.00
2018-11-20T05:20:27.249Z,0.00
2018-11-20T05:21:27.246Z,0.00
2018-11-20T05:22:27.244Z,0.00
2018-11-20T05:24:27.259Z,0.00
2018-11-20T05:25:27.264Z,0.00
2018-11-20T05:26:27.268Z,0.00
2018-11-20T05:27:27.266Z,0.00
2018-11-20T05:28:27.294Z,0.00
2018-11-20T05:29:27.265Z,0.00
2018-11-20T05:30:27.264Z,0.00
2018-11-20T05:31:27.273Z,0.00
2018-11-20T05:33:27.280Z,0.00
2018-11-20T05:34:27.274Z,0.00
2018-11-20T05:35:27.286Z,0.00
2018-11-20T05:36:27.286Z,0.00
2018-11-20T05:37:27.303Z,0.00
2018-11-20T05:38:27.297Z,0.00
2018-11-20T05:39:27.296Z,0.00
2018-11-20T05:40:27.348Z,0.00
2018-11-20T05:41:27.296Z,0.00
2018-11-20T05:42:27.303Z,0.00
2018-11-20T05:43:27.303Z,0.00
2018-11-20T05:44:27.309Z,0.00
2018-11-20T05:45:27.316Z,0.00
2018-11-20T05:46:27.322Z,0.00
2018-11-20T05:47:27.313Z,0.00
2018-11-20T05:48:27.313Z,0.00
2018-11-20T05:50:27.310Z,0.00
2018-11-20T05:51:27.310Z,0.00
2018-11-20T05:52:27.312Z,0.00
2018-11-20T05:53:27.319Z,0.00
2018-11-20T05:54:27.324Z,0.00
2018-11-20T05:55:27.327Z,0.00
2018-11-20T05:56:27.333Z,0.00
2018-11-20T05:57:27.342Z,0.00
2018-11-20T05:58:27.343Z,0.00
2018-11-20T05:59:27.347Z,0.00
2018-11-20T06:00:27.379Z,0.00
2018-11-20T06:01:27.385Z,0.00
2018-11-20T06:02:27.354Z,0.00
2018-11-20T06:03:27.348Z,0.00
2018-11-20T06:04:27.361Z,0.00
2018-11-20T06:05:27.364Z,0.00
2018-11-20T06:06:27.369Z,0.00
2018-11-20T06:07:27.373Z,0.00
2018-11-20T06:09:27.369Z,0.00
2018-11-20T06:10:27.374Z,0.00
2018-11-20T06:11:27.419Z,0.00
2018-11-20T06:13:27.393Z,0.00
2018-11-20T06:14:27.377Z,0.00
2018-11-20T06:15:27.397Z,0.00
2018-11-20T06:16:27.392Z,0.00
2018-11-20T06:17:27.400Z,0.00
2018-11-20T06:18:27.383Z,0.00
2018-11-20T06:19:27.381Z,0.00
2018-11-20T06:20:27.403Z,0.00
2018-11-20T06:21:27.396Z,0.00
2018-11-20T06:22:27.403Z,0.00
2018-11-20T06:23:27.395Z,0.00
2018-11-20T06:24:27.402Z,0.00
2018-11-20T06:25:27.406Z,0.00
2018-11-20T06:26:27.409Z,0.00
2018-11-20T06:27:27.408Z,0.00
2018-11-20T06:28:27.477Z,0.00
2018-11-20T06:29:27.418Z,0.00
2018-11-20T06:30:27.415Z,0.00
2018-11-20T06:31:27.419Z,0.00
2018-11-20T06:32:27.422Z,0.00
2018-11-20T06:33:27.422Z,0.00
2018-11-20T06:34:27.477Z,0.00
2018-11-20T06:35:27.437Z,0.00
2018-11-20T06:36:27.424Z,0.00
2018-11-20T06:37:27.481Z,0.00
2018-11-20T06:38:27.584Z,0.00
2018-11-20T06:39:27.438Z,0.00
2018-11-20T06:40:27.444Z,0.00
2018-11-20T06:41:27.553Z,0.00
2018-11-20T06:42:27.589Z,0.00
2018-11-20T06:43:27.464Z,0.00
2018-11-20T06:44:27.454Z,0.00
2018-11-20T06:45:27.459Z,0.00
2018-11-20T06:46:27.458Z,0.00
2018-11-20T06:47:27.456Z,0.00
2018-11-20T06:48:27.460Z,0.00
2018-11-20T06:49:27.462Z,0.00
2018-11-20T06:50:27.466Z,0.00
2018-11-20T06:51:27.464Z,0.00
2018-11-20T06:52:27.472Z,0.00
2018-11-20T06:53:27.583Z,0.00
2018-11-20T06:54:27.475Z,0.00
2018-11-20T06:55:27.481Z,0.00
2018-11-20T06:57:27.534Z,0.00
2018-11-20T06:58:27.486Z,0.00
2018-11-20T06:59:27.496Z,0.00
2018-11-20T07:00:27.492Z,0.00
2018-11-20T07:01:27.563Z,0.00
2018-11-20T07:02:27.495Z,0.00
2018-11-20T07:03:27.497Z,0.00
2018-11-20T07:04:27.501Z,0.00
2018-11-20T07:05:27.502Z,0.00
2018-11-20T07:06:27.496Z,0.00
2018-11-20T07:07:29.398Z,0.00
2018-11-20T07:08:27.580Z,0.00
2018-11-20T07:09:27.512Z,0.00
2018-11-20T07:10:27.528Z,0.00
2018-11-20T07:11:27.521Z,0.00
2018-11-20T07:12:27.519Z,0.00
2018-11-20T07:13:27.538Z,0.00
2018-11-20T07:14:27.530Z,0.00
2018-11-20T07:15:27.624Z,0.00
2018-11-20T07:16:27.601Z,0.00
2018-11-20T07:17:27.541Z,0.00
2018-11-20T07:18:27.601Z,0.00
2018-11-20T07:19:27.547Z,0.00
2018-11-20T07:20:27.550Z,0.00
2018-11-20T07:21:27.545Z,0.00
2018-11-20T07:22:27.558Z,0.00
2018-11-20T07:23:27.618Z,0.00
2018-11-20T07:24:27.549Z,0.00
2018-11-20T07:25:27.547Z,0.00
2018-11-20T07:26:27.555Z,0.00
2018-11-20T07:27:27.569Z,0.00
2018-11-20T07:30:27.621Z,0.00
2018-11-20T07:31:27.588Z,0.00
2018-11-20T07:32:27.571Z,0.00
2018-11-20T07:33:27.574Z,0.00
2018-11-20T07:34:27.562Z,0.00
2018-11-20T07:35:27.596Z,0.00
2018-11-20T07:36:27.703Z,0.00
2018-11-20T07:37:27.765Z,5.63
2018-11-20T07:38:27.609Z,5.63
2018-11-20T07:39:27.576Z,5.63
2018-11-20T07:40:27.589Z,5.63
2018-11-20T07:41:27.592Z,5.63
2018-11-20T07:42:27.585Z,5.63
2018-11-20T07:43:27.658Z,5.63
2018-11-20T07:44:27.589Z,5.63
2018-11-20T07:45:27.609Z,5.63
2018-11-20T07:46:27.604Z,5.63
2018-11-20T07:47:27.602Z,5.63
2018-11-20T07:48:27.594Z,5.63
2018-11-20T07:49:27.608Z,5.63
2018-11-20T07:51:27.625Z,5.63
2018-11-20T07:52:27.614Z,5.63
2018-11-20T07:53:27.617Z,5.63
2018-11-20T07:54:27.614Z,5.63
2018-11-20T07:55:27.705Z,5.63
2018-11-20T07:56:27.667Z,5.63
2018-11-20T07:57:27.625Z,5.63
2018-11-20T07:58:27.634Z,5.63
2018-11-20T07:59:27.636Z,5.63
2018-11-20T08:00:27.640Z,11.25
2018-11-20T08:01:27.652Z,11.25
2018-11-20T08:02:27.802Z,11.25
2018-11-20T08:03:27.652Z,11.25
2018-11-20T08:04:29.624Z,11.25
2018-11-20T08:05:27.646Z,11.25
2018-11-20T08:06:27.640Z,11.25
2018-11-20T08:07:27.667Z,16.88
2018-11-20T08:08:27.706Z,11.25
2018-11-20T08:09:27.651Z,16.88
2018-11-20T08:10:27.654Z,16.88
2018-11-20T08:11:27.663Z,16.88
2018-11-20T08:12:27.672Z,11.25
2018-11-20T08:13:27.659Z,11.25
2018-11-20T08:14:27.671Z,16.88
2018-11-20T08:15:27.704Z,16.88
2018-11-20T08:16:27.665Z,11.25
2018-11-20T08:17:27.681Z,11.25
2018-11-20T08:18:27.671Z,11.25
2018-11-20T08:19:27.711Z,11.25
2018-11-20T08:20:27.683Z,11.25
2018-11-20T08:21:27.681Z,11.25
2018-11-20T08:22:27.683Z,11.25
2018-11-20T08:23:27.690Z,11.25
2018-11-20T08:24:27.690Z,16.88
2018-11-20T08:25:27.790Z,16.88
2018-11-20T08:26:27.999Z,16.88
2018-11-20T08:27:27.686Z,16.88
2018-11-20T08:28:27.694Z,16.88
2018-11-20T08:29:27.696Z,16.88
2018-11-20T08:30:27.704Z,16.88
2018-11-20T08:31:27.720Z,16.88
2018-11-20T08:33:27.754Z,16.88
2018-11-20T08:34:27.736Z,16.88
2018-11-20T08:35:27.738Z,16.88
2018-11-20T08:36:27.723Z,16.88
2018-11-20T08:37:27.728Z,16.88
2018-11-20T08:38:27.721Z,16.88
2018-11-20T08:39:27.716Z,16.88
2018-11-20T08:40:27.730Z,16.88
2018-11-20T08:41:27.726Z,16.88
2018-11-20T08:42:27.730Z,16.88
2018-11-20T08:44:27.744Z,16.88
2018-11-20T08:45:27.752Z,16.88
2018-11-20T08:46:27.752Z,16.88
2018-11-20T08:47:27.788Z,16.88
2018-11-20T08:48:27.779Z,16.88
2018-11-20T08:49:27.735Z,16.88
2018-11-20T08:50:27.737Z,16.88
2018-11-20T08:51:27.748Z,16.88
2018-11-20T08:52:27.748Z,16.88
2018-11-20T08:53:27.806Z,16.88
2018-11-20T08:54:27.780Z,16.88
2018-11-20T08:55:27.760Z,16.88
2018-11-20T08:57:27.780Z,16.88
2018-11-20T08:58:27.768Z,16.88
2018-11-20T08:59:27.771Z,16.88
2018-11-20T09:00:27.772Z,16.88
2018-11-20T09:01:27.780Z,16.88
2018-11-20T09:03:27.777Z,16.88
2018-11-20T09:04:27.789Z,16.88
2018-11-20T09:05:27.809Z,16.88
2018-11-20T09:06:27.782Z,16.88
2018-11-20T09:07:27.807Z,16.88
2018-11-20T09:08:27.781Z,22.50
2018-11-20T09:09:27.783Z,22.50
2018-11-20T09:10:27.857Z,16.88
2018-11-20T09:11:27.797Z,16.88
2018-11-20T09:12:27.810Z,16.88
2018-11-20T09:14:27.801Z,16.88
2018-11-20T09:15:27.833Z,16.88
2018-11-20T09:16:27.831Z,22.50
2018-11-20T09:17:27.825Z,22.50
2018-11-20T09:18:27.834Z,22.50
2018-11-20T09:19:27.815Z,22.50
2018-11-20T09:20:27.950Z,22.50
2018-11-20T09:21:27.819Z,22.50
2018-11-20T09:22:27.822Z,22.50
2018-11-20T09:23:27.820Z,22.50
2018-11-20T09:24:27.839Z,22.50
2018-11-20T09:25:27.856Z,22.50
2018-11-20T09:26:27.842Z,22.50
2018-11-20T09:27:27.847Z,22.50
2018-11-20T09:29:27.841Z,28.13
2018-11-20T09:30:27.826Z,28.13
2018-11-20T09:31:27.858Z,28.13
2018-11-20T09:32:27.837Z,28.13
2018-11-20T09:33:27.861Z,33.75
2018-11-20T09:34:27.926Z,28.13
2018-11-20T09:35:28.060Z,33.75
2018-11-20T09:36:27.845Z,33.75
2018-11-20T09:37:27.854Z,39.38
2018-11-20T09:38:27.861Z,39.38
2018-11-20T09:39:27.884Z,39.38
2018-11-20T09:40:27.893Z,33.75
2018-11-20T09:41:27.886Z,39.38
2018-11-20T09:42:27.867Z,39.38
2018-11-20T09:43:27.922Z,33.75
2018-11-20T09:44:27.874Z,33.75
2018-11-20T09:45:27.871Z,33.75
2018-11-20T09:46:27.913Z,39.38
2018-11-20T09:47:27.884Z,33.75
2018-11-20T09:48:27.889Z,39.38
2018-11-20T09:50:27.889Z,39.38
2018-11-20T09:51:27.877Z,39.38
2018-11-20T09:52:27.925Z,39.38
2018-11-20T09:53:27.893Z,39.38
2018-11-20T09:54:27.897Z,39.38
2018-11-20T09:55:27.912Z,39.38
2018-11-20T09:56:27.910Z,39.38
2018-11-20T09:57:27.912Z,39.38
2018-11-20T09:58:27.907Z,45.00
2018-11-20T09:59:28.022Z,45.00
2018-11-20T10:00:27.982Z,45.00
2018-11-20T10:02:27.930Z,39.38
2018-11-20T10:03:27.980Z,39.38
2018-11-20T10:04:27.920Z,39.38
2018-11-20T10:05:27.920Z,39.38
2018-11-20T10:06:27.938Z,45.00
2018-11-20T10:07:27.933Z,45.00
2018-11-20T10:08:27.934Z,45.00
2018-11-20T10:09:27.935Z,45.00
2018-11-20T10:10:27.964Z,45.00
2018-11-20T10:11:27.943Z,39.38
2018-11-20T10:12:27.944Z,45.00
2018-11-20T10:13:27.956Z,45.00
2018-11-20T10:14:27.960Z,50.63
2018-11-20T10:15:27.953Z,50.63
2018-11-20T10:16:27.952Z,45.00
2018-11-20T10:17:27.970Z,45.00
2018-11-20T10:18:27.958Z,45.00
2018-11-20T10:19:27.958Z,50.63
2018-11-20T10:20:27.962Z,45.00
2018-11-20T10:21:27.979Z,50.63
2018-11-20T10:22:27.974Z,50.63
2018-11-20T10:23:27.983Z,50.63
2018-11-20T10:24:28.967Z,50.63
2018-11-20T10:25:28.026Z,45.00
2018-11-20T10:27:27.983Z,50.63
2018-11-20T10:28:27.994Z,56.25
2018-11-20T10:29:27.985Z,50.63
2018-11-20T10:30:27.991Z,45.00
2018-11-20T10:31:27.992Z,39.38
2018-11-20T10:32:28.012Z,45.00
2018-11-20T10:33:27.999Z,39.38
2018-11-20T10:34:28.058Z,45.00
2018-11-20T10:35:28.029Z,45.00
2018-11-20T10:36:28.002Z,50.63
2018-11-20T10:38:28.017Z,50.63
2018-11-20T10:40:28.050Z,73.13
2018-11-20T10:41:28.022Z,78.75
2018-11-20T10:42:28.017Z,78.75
2018-11-20T10:43:28.024Z,84.38
2018-11-20T10:44:28.025Z,95.63
2018-11-20T10:45:28.101Z,106.88
2018-11-20T10:46:28.048Z,112.50
2018-11-20T10:47:28.040Z,118.13
2018-11-20T10:48:28.038Z,129.38
2018-11-20T10:49:28.043Z,135.00
2018-11-20T10:50:28.044Z,118.13
2018-11-20T10:51:28.045Z,106.88
2018-11-20T10:52:28.079Z,101.25
2018-11-20T10:53:28.076Z,106.88
2018-11-20T10:54:28.043Z,106.88
2018-11-20T10:55:28.050Z,101.25
2018-11-20T10:56:28.067Z,106.88
2018-11-20T10:57:28.061Z,106.88
2018-11-20T10:58:28.059Z,112.50
2018-11-20T10:59:28.078Z,118.13
2018-11-20T11:00:28.071Z,106.88
2018-11-20T11:01:28.080Z,106.88
2018-11-20T11:03:28.075Z,101.25
2018-11-20T11:04:28.150Z,90.00
2018-11-20T11:05:28.096Z,84.38
2018-11-20T11:06:28.208Z,84.38
2018-11-20T11:07:28.316Z,95.63
2018-11-20T11:08:28.095Z,101.25
2018-11-20T11:09:28.094Z,101.25
2018-11-20T11:10:28.100Z,95.63
2018-11-20T11:11:28.112Z,95.63
2018-11-20T11:12:28.110Z,95.63
2018-11-20T11:13:28.099Z,95.63
2018-11-20T11:14:28.176Z,84.38
2018-11-20T11:15:28.118Z,78.75
2018-11-20T11:16:28.115Z,73.13
2018-11-20T11:17:28.139Z,73.13
2018-11-20T11:19:28.131Z,78.75
2018-11-20T11:21:28.154Z,78.75
2018-11-20T11:22:28.169Z,78.75
2018-11-20T11:25:28.142Z,73.13
2018-11-20T11:26:28.153Z,67.50
2018-11-20T11:27:28.146Z,67.50
2018-11-20T11:28:28.151Z,61.88
2018-11-20T11:29:28.153Z,61.88
2018-11-20T11:30:28.158Z,67.50
2018-11-20T11:31:28.164Z,61.88
2018-11-20T11:32:28.167Z,61.88
2018-11-20T11:33:28.864Z,67.50
2018-11-20T11:34:28.166Z,67.50
2018-11-20T11:35:28.179Z,67.50
2018-11-20T11:36:28.175Z,67.50
2018-11-20T11:37:28.183Z,67.50
2018-11-20T11:38:28.189Z,73.13
2018-11-20T11:39:28.184Z,73.13
2018-11-20T11:40:28.198Z,73.13
2018-11-20T11:41:28.186Z,73.13
2018-11-20T11:42:28.191Z,78.75
2018-11-20T11:43:28.313Z,78.75
2018-11-20T11:44:28.193Z,78.75
2018-11-20T11:45:28.196Z,78.75
2018-11-20T11:47:28.208Z,73.13
2018-11-20T11:48:28.213Z,73.13
2018-11-20T11:50:28.204Z,73.13
2018-11-20T11:51:28.220Z,73.13
2018-11-20T11:52:28.217Z,73.13
2018-11-20T11:53:28.218Z,73.13
2018-11-20T11:54:28.225Z,73.13
2018-11-20T11:55:28.227Z,73.13
2018-11-20T11:56:28.237Z,73.13
2018-11-20T11:57:28.233Z,73.13
2018-11-20T11:58:28.229Z,73.13
2018-11-20T11:59:28.233Z,67.50
2018-11-20T12:00:28.243Z,67.50
2018-11-20T12:03:28.248Z,56.25
2018-11-20T12:04:28.256Z,56.25
2018-11-20T12:05:28.257Z,56.25
2018-11-20T12:06:28.257Z,56.25
2018-11-20T12:07:28.257Z,56.25
2018-11-20T12:08:28.265Z,50.63
2018-11-20T12:09:28.271Z,50.63
2018-11-20T12:10:28.273Z,50.63
2018-11-20T12:11:28.271Z,45.00
2018-11-20T12:12:28.275Z,45.00
2018-11-20T12:13:28.271Z,45.00
2018-11-20T12:14:28.286Z,45.00
2018-11-20T12:15:28.287Z,45.00
2018-11-20T12:16:28.288Z,45.00
2018-11-20T12:17:28.286Z,45.00
2018-11-20T12:18:28.299Z,45.00
2018-11-20T12:19:28.294Z,45.00
2018-11-20T12:20:28.299Z,45.00
2018-11-20T12:21:28.311Z,45.00
2018-11-20T12:22:28.314Z,45.00
2018-11-20T12:23:28.308Z,45.00
2018-11-20T12:24:29.269Z,45.00
2018-11-20T12:26:28.329Z,50.63
2018-11-20T12:27:28.318Z,45.00
2018-11-20T12:28:28.318Z,50.63
2018-11-20T12:29:28.316Z,50.63
2018-11-20T12:30:28.321Z,56.25
2018-11-20T12:31:28.749Z,61.88
2018-11-20T12:32:28.331Z,67.50
2018-11-20T12:33:28.331Z,67.50
2018-11-20T12:34:28.345Z,73.13
2018-11-20T12:35:33.207Z,73.13
2018-11-20T12:36:30.518Z,73.13
2018-11-20T12:37:28.350Z,73.13
2018-11-20T12:38:28.346Z,67.50
2018-11-20T12:39:28.348Z,73.13
2018-11-20T12:40:28.357Z,73.13
2018-11-20T12:41:28.633Z,73.13
2018-11-20T12:42:28.356Z,73.13
2018-11-20T12:43:28.365Z,73.13
2018-11-20T12:44:28.365Z,73.13
2018-11-20T12:45:28.378Z,67.50
2018-11-20T12:46:28.376Z,73.13
2018-11-20T12:47:28.383Z,73.13
2018-11-20T12:48:28.372Z,73.13
2018-11-20T12:49:30.091Z,67.50
2018-11-20T12:50:28.388Z,67.50
2018-11-20T12:51:28.389Z,61.88
2018-11-20T12:52:28.394Z,56.25
2018-11-20T12:53:28.385Z,56.25
2018-11-20T12:54:29.895Z,56.25
2018-11-20T12:55:28.395Z,50.63
2018-11-20T12:56:28.406Z,50.63
2018-11-20T12:57:28.398Z,50.63
2018-11-20T12:58:28.421Z,50.63
2018-11-20T12:59:28.404Z,56.25
2018-11-20T13:00:28.411Z,56.25
2018-11-20T13:01:28.417Z,61.88
2018-11-20T13:02:28.411Z,61.88
2018-11-20T13:03:28.738Z,56.25
2018-11-20T13:04:28.723Z,50.63
2018-11-20T13:05:28.690Z,50.63
2018-11-20T13:06:28.419Z,45.00
2018-11-20T13:07:28.423Z,45.00
2018-11-20T13:08:31.167Z,50.63
2018-11-20T13:09:28.435Z,50.63
2018-11-20T13:10:28.449Z,56.25
2018-11-20T13:11:28.460Z,56.25
2018-11-20T13:12:28.436Z,56.25
2018-11-20T13:13:28.443Z,50.63
2018-11-20T13:14:28.439Z,50.63
2018-11-20T13:15:28.450Z,50.63
2018-11-20T13:16:28.457Z,50.63
2018-11-20T13:17:28.461Z,50.63
2018-11-20T13:18:28.950Z,50.63
2018-11-20T13:19:29.355Z,50.63
2018-11-20T13:20:29.643Z,50.63
2018-11-20T13:21:28.470Z,50.63
2018-11-20T13:22:28.462Z,45.00
2018-11-20T13:23:29.393Z,45.00
2018-11-20T13:24:29.516Z,39.38
2018-11-20T13:25:28.474Z,39.38
2018-11-20T13:26:28.464Z,39.38
2018-11-20T13:27:28.475Z,45.00
2018-11-20T13:28:28.491Z,45.00
2018-11-20T13:29:28.477Z,45.00
2018-11-20T13:30:28.485Z,45.00
2018-11-20T13:32:28.495Z,50.63
2018-11-20T13:33:28.488Z,50.63
2018-11-20T13:34:29.127Z,50.63
2018-11-20T13:35:28.526Z,45.00
2018-11-20T13:36:28.523Z,45.00
2018-11-20T13:37:28.537Z,45.00
2018-11-20T13:38:29.349Z,39.38
2018-11-20T13:39:28.499Z,39.38
2018-11-20T13:40:28.555Z,39.38
2018-11-20T13:42:28.540Z,39.38
2018-11-20T13:43:28.513Z,39.38
2018-11-20T13:44:28.523Z,39.38
2018-11-20T13:45:28.525Z,39.38
2018-11-20T13:46:28.526Z,39.38
2018-11-20T13:47:28.538Z,39.38
2018-11-20T13:49:28.532Z,39.38
2018-11-20T13:50:28.538Z,39.38
2018-11-20T13:51:28.553Z,33.75
2018-11-20T13:52:28.544Z,33.75
2018-11-20T13:53:28.536Z,33.75
2018-11-20T13:55:28.549Z,33.75
2018-11-20T13:56:28.546Z,33.75
2018-11-20T13:57:28.561Z,33.75
2018-11-20T13:58:28.548Z,33.75
2018-11-20T13:59:28.555Z,33.75
2018-11-20T14:01:28.563Z,33.75
2018-11-20T14:02:28.574Z,33.75
2018-11-20T14:03:28.574Z,39.38
2018-11-20T14:05:28.574Z,39.38
2018-11-20T14:06:28.573Z,39.38
2018-11-20T14:08:55.540Z,39.38
2018-11-20T14:18:32.651Z,33.75
2018-11-20T14:19:32.653Z,33.75
2018-11-20T14:20:32.640Z,33.75
2018-11-20T14:22:43.981Z,33.75
2018-11-20T14:23:44.562Z,33.75
2018-11-20T14:24:32.651Z,33.75
2018-11-20T14:25:32.653Z,28.13
2018-11-20T14:26:32.659Z,28.13
2018-11-20T14:27:32.655Z,28.13
2018-11-20T14:28:32.677Z,28.13
2018-11-20T14:29:32.681Z,28.13
2018-11-20T14:30:32.679Z,22.50
2018-11-20T14:31:32.672Z,22.50
2018-11-20T14:32:32.703Z,22.50
2018-11-20T14:33:32.688Z,16.88
2018-11-20T14:34:32.692Z,16.88
2018-11-20T14:35:32.722Z,16.88
2018-11-20T14:36:32.685Z,16.88
2018-11-20T14:37:32.688Z,11.25
2018-11-20T14:38:32.700Z,11.25
2018-11-20T14:39:32.704Z,11.25
2018-11-20T14:40:32.704Z,11.25
2018-11-20T14:41:32.779Z,11.25
2018-11-20T14:42:32.698Z,11.25
2018-11-20T14:43:32.696Z,11.25
2018-11-20T14:44:32.694Z,11.25
2018-11-20T14:45:32.695Z,5.63
2018-11-20T14:46:32.706Z,5.63
2018-11-20T14:47:32.704Z,5.63
2018-11-20T14:48:32.706Z,5.63
2018-11-20T14:49:32.714Z,5.63
2018-11-20T14:50:32.746Z,5.63
2018-11-20T14:51:32.735Z,5.63
2018-11-20T14:53:32.723Z,5.63
2018-11-20T14:54:32.729Z,5.63
2018-11-20T14:56:32.731Z,5.63
2018-11-20T14:57:32.731Z,5.63
2018-11-20T14:58:32.741Z,5.63
2018-11-20T14:59:32.736Z,5.63
2018-11-20T15:00:32.754Z,5.63
2018-11-20T15:01:32.740Z,5.63
2018-11-20T15:02:32.749Z,5.63
2018-11-20T15:03:32.747Z,5.63